Time;durP1;ratioP1;P1;durP2;ratioP2;P2;SDS_P1;SDS_P2;PMS_P1;PMS_P2;Temp;Humidity;BMP_temperature;BMP_pressure;BME280_temperature;BME280_humidity;BME280_pressure;Samples;Min_cycle;Max_cycle;Signal;HPM_P1;HPM_P2
2023/03/24 00:00:57;;;;;;;12.32;6.15;;;11.40;99.90;;;;;;4335370;28;9999918;-71
2023/03/24 00:03:29;;;;;;;8.65;5.72;;;11.40;99.90;;;;;;5027915;28;20095;-71
2023/03/24 00:06:03;;;;;;;7.35;5.55;;;11.40;99.90;;;;;;5030443;28;20064;-71
2023/03/24 00:08:36;;;;;;;7.78;5.80;;;11.40;99.90;;;;;;5017140;28;20099;-71
2023/03/24 00:11:07;;;;;;;9.30;6.00;;;11.40;99.90;;;;;;5021497;28;20026;-71
2023/03/24 00:13:43;;;;;;;7.43;6.20;;;11.40;99.90;;;;;;5029299;28;20400;-71
2023/03/24 00:16:15;;;;;;;8.13;6.05;;;11.40;99.90;;;;;;5029749;28;20036;-71
2023/03/24 00:18:51;;;;;;;7.97;5.77;;;11.40;99.90;;;;;;5031317;28;20394;-71
2023/03/24 00:21:23;;;;;;;9.02;6.30;;;11.40;99.90;;;;;;5028616;28;20284;-71
2023/03/24 00:23:57;;;;;;;8.95;6.63;;;11.40;99.90;;;;;;5028596;28;20426;-71
2023/03/24 00:26:37;;;;;;;8.60;6.13;;;11.30;99.90;;;;;;5018319;28;20025;-71
2023/03/24 00:29:06;;;;;;;8.55;5.97;;;11.40;99.90;;;;;;5021962;28;20502;-71
2023/03/24 00:31:39;;;;;;;10.15;6.45;;;11.30;99.90;;;;;;5021072;28;20013;-71
2023/03/24 00:34:12;;;;;;;8.45;5.15;;;11.30;99.90;;;;;;5028886;28;20124;-71
2023/03/24 00:36:47;;;;;;;8.40;6.40;;;11.30;99.90;;;;;;5023861;28;20025;-71
2023/03/24 00:39:21;;;;;;;9.75;6.25;;;11.20;99.90;;;;;;5026583;28;20654;-71
2023/03/24 00:41:57;;;;;;;9.35;6.65;;;11.20;99.90;;;;;;5026946;28;20640;-71
2023/03/24 00:44:26;;;;;;;6.97;6.07;;;11.20;99.90;;;;;;5025290;28;20108;-71
2023/03/24 00:47:01;;;;;;;9.10;6.30;;;11.20;99.90;;;;;;5016235;28;20053;-71
2023/03/24 00:49:43;;;;;;;7.68;6.32;;;11.10;99.90;;;;;;5023564;28;20402;-71
2023/03/24 00:52:19;;;;;;;9.00;6.53;;;11.20;99.90;;;;;;5029700;28;20030;-71
2023/03/24 00:54:53;;;;;;;8.30;6.88;;;11.10;99.90;;;;;;5030141;28;20350;-71
2023/03/24 00:57:28;;;;;;;9.65;7.25;;;11.10;99.90;;;;;;5025607;28;20045;-71
2023/03/24 00:59:56;;;;;;;9.85;6.95;;;11.10;99.90;;;;;;5028345;28;20121;-71
2023/03/24 01:02:34;;;;;;;9.68;7.03;;;11.10;99.90;;;;;;5022624;28;20033;-71
2023/03/24 01:05:09;;;;;;;8.70;6.63;;;11.00;99.90;;;;;;5027675;28;20325;-71
2023/03/24 01:07:42;;;;;;;10.73;6.80;;;11.00;99.90;;;;;;5026837;28;20041;-71
2023/03/24 01:10:16;;;;;;;9.68;6.90;;;11.00;99.90;;;;;;5030015;28;20022;-71
2023/03/24 01:12:53;;;;;;;10.60;7.18;;;11.00;99.90;;;;;;5020408;28;20018;-71
2023/03/24 01:15:28;;;;;;;10.43;7.03;;;10.90;99.90;;;;;;5020610;28;20494;-70
2023/03/24 01:18:01;;;;;;;11.93;7.18;;;10.90;99.90;;;;;;5022240;28;20041;-71
2023/03/24 01:20:35;;;;;;;9.52;7.05;;;10.90;99.90;;;;;;5026724;28;20037;-71
2023/03/24 01:23:09;;;;;;;12.07;7.18;;;10.90;99.90;;;;;;5029111;28;20036;-71
2023/03/24 01:25:44;;;;;;;10.25;6.65;;;10.80;99.90;;;;;;5011665;28;20038;-70
2023/03/24 01:28:20;;;;;;;11.63;6.57;;;10.80;99.90;;;;;;5023702;28;20041;-70
2023/03/24 01:30:57;;;;;;;9.90;6.88;;;10.80;99.90;;;;;;5016257;28;20258;-71
2023/03/24 01:33:31;;;;;;;10.02;7.10;;;10.80;99.90;;;;;;5021439;28;20026;-70
2023/03/24 01:36:05;;;;;;;10.38;7.63;;;10.80;99.90;;;;;;5027742;28;20053;-71
2023/03/24 01:38:41;;;;;;;9.98;7.07;;;10.80;99.90;;;;;;5021232;28;20041;-71
2023/03/24 01:41:15;;;;;;;10.02;7.57;;;10.80;99.90;;;;;;5026897;28;20041;-71
2023/03/24 01:43:46;;;;;;;;;;;10.80;99.90;;;;;;5024373;28;20021;-71
2023/03/24 01:46:25;;;;;;;10.00;6.55;;;10.80;99.90;;;;;;5026347;28;20369;-71
2023/03/24 01:49:03;;;;;;;9.20;6.55;;;10.80;99.90;;;;;;5022003;28;20030;-71
2023/03/24 01:51:39;;;;;;;10.23;6.75;;;10.80;99.90;;;;;;5022163;28;20029;-71
2023/03/24 01:54:20;;;;;;;10.68;7.00;;;10.70;99.90;;;;;;5025941;28;20083;-71
2023/03/24 01:56:50;;;;;;;10.50;6.22;;;10.80;99.90;;;;;;5026542;28;20644;-71
2023/03/24 01:59:26;;;;;;;8.93;6.55;;;10.80;99.90;;;;;;5021707;28;20025;-71
2023/03/24 02:02:02;;;;;;;11.50;6.55;;;10.80;99.90;;;;;;5023926;28;20026;-71
2023/03/24 02:04:37;;;;;;;8.43;6.80;;;10.80;99.90;;;;;;5026645;28;20087;-71
2023/03/24 02:07:30;;;;;;;9.30;7.07;;;10.80;99.90;;;;;;5024239;28;20041;-71
2023/03/24 02:10:07;;;;;;;9.27;6.63;;;10.80;99.90;;;;;;5027734;28;20048;-71
2023/03/24 02:12:43;;;;;;;8.65;6.57;;;10.80;99.90;;;;;;5026787;28;21244;-71
2023/03/24 02:15:19;;;;;;;10.35;7.00;;;10.80;99.90;;;;;;5028207;28;20037;-70
2023/03/24 02:18:17;;;;;;;8.50;6.78;;;10.80;99.90;;;;;;5026844;28;20034;-70
2023/03/24 02:21:12;;;;;;;9.85;7.00;;;10.80;99.90;;;;;;5032000;28;20520;-70
2023/03/24 02:24:06;;;;;;;10.52;6.65;;;10.90;99.90;;;;;;5027553;28;20041;-71
2023/03/24 02:27:27;;;;;;;9.88;6.85;;;10.90;99.90;;;;;;5031418;28;20040;-70
2023/03/24 02:30:18;;;;;;;10.20;6.97;;;10.90;99.90;;;;;;5031158;28;20033;-70
2023/03/24 02:33:19;;;;;;;10.77;6.60;;;10.90;99.90;;;;;;5031584;28;20033;-70
2023/03/24 02:35:58;;;;;;;8.70;7.05;;;10.90;99.90;;;;;;5024592;28;20387;-70
2023/03/24 02:39:04;;;;;;;10.45;6.85;;;10.90;99.90;;;;;;5029696;28;20092;-70
2023/03/24 02:41:55;;;;;;;8.07;6.80;;;10.90;99.90;;;;;;5025375;28;20025;-70
2023/03/24 02:44:45;;;;;;;8.65;7.10;;;10.90;99.90;;;;;;5026443;28;20030;-70
2023/03/24 02:47:36;;;;;;;10.48;7.80;;;10.90;99.90;;;;;;5017109;28;20037;-70
2023/03/24 02:50:16;;;;;;;9.88;7.53;;;10.90;99.90;;;;;;5026407;28;20030;-70
2023/03/24 02:53:07;;;;;;;12.35;7.97;;;10.80;99.90;;;;;;5024452;28;20439;-70
2023/03/24 02:56:00;;;;;;;10.80;7.60;;;10.90;99.90;;;;;;5029492;28;20509;-70
2023/03/24 03:32:15;;;;;;;12.27;8.18;;;10.80;99.90;;;;;;5023073;28;20563;-70
2023/03/24 03:34:57;;;;;;;9.98;7.47;;;10.80;99.90;;;;;;5023990;28;20025;-70
2023/03/24 03:37:56;;;;;;;9.40;6.85;;;10.80;99.90;;;;;;5022666;28;20025;-70
2023/03/24 03:40:37;;;;;;;12.52;7.75;;;10.80;99.90;;;;;;5029019;28;20038;-70
2023/03/24 03:43:11;;;;;;;10.68;7.22;;;10.70;99.90;;;;;;5031260;28;20029;-70
2023/03/24 03:45:38;;;;;;;8.15;6.30;;;10.70;99.90;;;;;;5024437;28;20069;-70
2023/03/24 03:48:12;;;;;;;7.82;6.57;;;10.70;99.90;;;;;;5026179;28;20045;-70
2023/03/24 03:50:45;;;;;;;8.05;6.47;;;10.70;99.90;;;;;;5029606;28;20034;-70
2023/03/24 03:53:21;;;;;;;8.65;7.03;;;10.70;99.90;;;;;;5030083;28;20041;-70
2023/03/24 03:55:56;;;;;;;8.85;6.60;;;10.60;99.90;;;;;;5026135;28;20401;-69
2023/03/24 03:58:33;;;;;;;9.80;7.10;;;10.70;99.90;;;;;;5024405;28;20160;-70
2023/03/24 04:01:10;;;;;;;8.05;6.22;;;10.70;99.90;;;;;;5024869;28;20405;-70
2023/03/24 04:04:01;;;;;;;9.07;6.22;;;10.60;99.90;;;;;;5027146;28;20033;-70
2023/03/24 04:06:45;;;;;;;9.30;6.43;;;10.70;99.90;;;;;;5024119;28;20037;-70
2023/03/24 04:09:23;;;;;;;9.57;6.68;;;10.60;99.90;;;;;;5028505;28;20044;-70
2023/03/24 04:12:25;;;;;;;9.30;6.70;;;10.70;99.90;;;;;;5024250;28;20034;-70
2023/03/24 04:15:22;;;;;;;10.05;6.45;;;10.70;99.90;;;;;;5014034;28;20030;-70
2023/03/24 04:18:23;;;;;;;11.18;7.10;;;10.70;99.90;;;;;;5024834;28;20086;-71
2023/03/24 04:21:32;;;;;;;8.70;6.50;;;10.60;99.90;;;;;;5011684;28;20044;-70
2023/03/24 04:24:18;;;;;;;9.90;6.47;;;10.70;99.90;;;;;;5019217;28;20053;-71
2023/03/24 04:27:22;;;;;;;9.45;6.88;;;10.70;99.90;;;;;;5030311;28;20042;-70
2023/03/24 04:30:05;;;;;;;8.77;6.65;;;10.70;99.90;;;;;;5022318;28;20080;-70
2023/03/24 04:32:48;;;;;;;9.75;6.80;;;10.60;99.90;;;;;;5030729;28;20033;-70
2023/03/24 04:35:32;;;;;;;14.30;6.95;;;10.60;99.90;;;;;;5030336;28;20037;-70
2023/03/24 04:38:14;;;;;;;10.45;6.95;;;10.70;99.90;;;;;;5029766;28;20612;-70
2023/03/24 04:40:54;;;;;;;9.57;6.80;;;10.60;99.90;;;;;;5025796;28;20037;-70
2023/03/24 04:43:37;;;;;;;9.73;7.07;;;10.60;99.90;;;;;;5028189;28;20096;-70
2023/03/24 04:46:10;;;;;;;8.25;6.80;;;10.70;99.90;;;;;;5029277;28;20136;-70
2023/03/24 04:48:43;;;;;;;9.13;6.78;;;10.70;99.90;;;;;;5028000;28;20033;-70
2023/03/24 04:51:18;;;;;;;10.50;6.95;;;10.70;99.90;;;;;;5025249;28;20105;-70
2023/03/24 04:53:56;;;;;;;8.93;7.15;;;10.70;99.90;;;;;;5030160;28;20501;-70
2023/03/24 04:56:41;;;;;;;10.70;7.03;;;10.80;99.90;;;;;;5029439;28;20128;-70
2023/03/24 04:59:16;;;;;;;12.70;7.10;;;10.70;99.90;;;;;;5015472;28;20116;-70
2023/03/24 05:01:50;;;;;;;10.77;7.32;;;10.80;99.90;;;;;;5013346;28;20041;-70
2023/03/24 05:04:28;;;;;;;10.13;7.13;;;10.80;99.90;;;;;;5019579;28;20034;-70
2023/03/24 05:07:01;;;;;;;10.57;7.18;;;10.80;99.90;;;;;;5030381;28;20037;-70
2023/03/24 05:09:39;;;;;;;10.75;7.63;;;10.80;99.90;;;;;;5029781;28;20033;-70
2023/03/24 05:12:12;;;;;;;10.32;7.53;;;10.80;99.90;;;;;;5024690;28;20038;-70
2023/03/24 05:14:40;;;;;;;8.85;7.50;;;10.80;99.90;;;;;;5025019;28;20482;-70
2023/03/24 05:17:13;;;;;;;10.40;7.32;;;10.90;99.90;;;;;;5027453;28;20087;-70
2023/03/24 05:19:44;;;;;;;;;;;10.90;99.90;;;;;;5028686;28;20033;-70
2023/03/24 05:22:17;;;;;;;13.73;7.82;;;10.90;99.90;;;;;;5028731;28;19913;-70
2023/03/24 05:24:42;;;;;;;;;;;10.90;99.90;;;;;;5021200;28;20515;-71
2023/03/24 05:27:15;;;;;;;11.48;8.15;;;10.90;99.90;;;;;;5029822;28;19909;-70
2023/03/24 05:29:47;;;;;;;13.45;8.57;;;10.80;99.90;;;;;;5026645;28;20108;-70
2023/03/24 05:32:26;;;;;;;15.50;9.07;;;10.90;99.90;;;;;;5020665;28;20053;-71
2023/03/24 05:34:57;;;;;;;13.02;9.10;;;11.00;99.90;;;;;;5013605;28;20149;-70
2023/03/24 05:37:23;;;;;;;11.43;8.57;;;11.00;99.90;;;;;;5021632;28;20037;-70
2023/03/24 05:39:55;;;;;;;12.15;8.15;;;11.00;99.90;;;;;;5020052;28;20041;-70
2023/03/24 05:42:26;;;;;;;11.70;8.88;;;11.10;99.90;;;;;;5020528;28;20037;-70
2023/03/24 05:45:00;;;;;;;17.20;8.98;;;11.10;99.90;;;;;;5018181;28;20041;-71
2023/03/24 05:47:33;;;;;;;13.73;9.27;;;11.10;99.90;;;;;;5020268;28;20749;-71
2023/03/24 05:50:01;;;;;;;11.60;9.10;;;11.10;99.90;;;;;;5011321;28;20136;-71
2023/03/24 05:52:36;;;;;;;14.60;8.65;;;11.20;99.90;;;;;;5015486;28;20357;-71
2023/03/24 05:55:06;;;;;;;15.65;9.40;;;11.10;99.90;;;;;;5021815;28;20083;-71
2023/03/24 05:57:33;;;;;;;13.25;9.15;;;11.10;99.90;;;;;;5024954;28;20383;-71
2023/03/24 05:59:59;;;;;;;15.05;9.60;;;11.10;99.90;;;;;;5027414;28;20512;-71
2023/03/24 06:02:26;;;;;;;14.57;9.07;;;11.20;99.90;;;;;;5015840;28;20033;-70
2023/03/24 06:04:57;;;;;;;11.05;9.10;;;11.30;99.90;;;;;;5024506;28;20668;-71
2023/03/24 06:07:25;;;;;;;14.32;9.40;;;;;;;;;;5025645;28;20033;-71
2023/03/24 06:09:51;;;;;;;13.00;9.27;;;11.30;99.90;;;;;;5014013;28;20031;-71
2023/03/24 06:12:22;;;;;;;12.52;8.75;;;11.40;99.90;;;;;;5021993;28;20065;-71
2023/03/24 06:14:50;;;;;;;14.00;9.35;;;11.40;99.90;;;;;;5021571;28;20533;-70
2023/03/24 06:17:16;;;;;;;13.13;8.88;;;11.40;99.90;;;;;;5021450;28;20405;-71
2023/03/24 06:19:53;;;;;;;12.27;9.20;;;11.40;99.90;;;;;;5025209;28;20028;-71
2023/03/24 06:22:21;;;;;;;11.50;8.52;;;;;;;;;;5027138;28;20046;-71
2023/03/24 06:24:49;;;;;;;14.48;9.48;;;11.40;99.90;;;;;;5017648;28;20026;-70
2023/03/24 06:27:14;;;;;;;13.35;8.98;;;11.50;99.90;;;;;;5016210;28;20116;-71
2023/03/24 06:29:42;;;;;;;15.38;8.60;;;11.50;99.90;;;;;;5022856;28;20060;-71
2023/03/24 06:32:09;;;;;;;11.18;8.35;;;11.50;99.90;;;;;;5019461;28;20075;-71
2023/03/24 06:34:37;;;;;;;12.23;8.60;;;;;;;;;;5020181;28;20110;-71
2023/03/24 06:37:05;;;;;;;13.55;8.93;;;11.50;99.90;;;;;;5023186;28;20304;-71
2023/03/24 06:39:31;;;;;;;11.30;8.10;;;11.60;99.90;;;;;;5013469;28;20515;-71
2023/03/24 06:41:57;;;;;;;12.00;8.20;;;11.60;99.90;;;;;;5024640;28;20049;-71
2023/03/24 06:44:23;;;;;;;11.60;8.63;;;11.50;99.90;;;;;;5020252;28;20025;-71
2023/03/24 06:46:56;;;;;;;10.90;8.60;;;;;;;;;;5017693;28;20120;-71
2023/03/24 06:49:22;;;;;;;10.82;8.50;;;;;;;;;;5023512;28;20057;-71
2023/03/24 06:51:48;;;;;;;10.32;8.10;;;;;;;;;;5023841;28;20025;-71
2023/03/24 06:54:15;;;;;;;9.60;8.02;;;;;;;;;;5023720;28;20263;-71
2023/03/24 06:56:42;;;;;;;12.23;7.93;;;;;;;;;;5022122;28;20045;-72
2023/03/24 06:59:09;;;;;;;11.55;7.75;;;;;;;;;;5021049;28;20038;-71
2023/03/24 07:01:36;;;;;;;9.88;7.95;;;;;;;;;;5016119;28;20025;-71
2023/03/24 07:04:03;;;;;;;11.40;8.07;;;;;;;;;;5021892;28;20038;-72
2023/03/24 07:06:29;;;;;;;11.75;7.75;;;;;;;;;;5021217;28;20021;-71
2023/03/24 07:08:56;;;;;;;9.85;7.45;;;;;;;;;;5019686;28;20033;-71
2023/03/24 07:11:23;;;;;;;8.55;7.15;;;;;;;;;;5025079;28;20041;-71
2023/03/24 07:13:50;;;;;;;11.13;7.40;;;11.90;99.90;;;;;;5025700;28;20021;-71
2023/03/24 07:16:16;;;;;;;10.68;7.35;;;11.90;99.90;;;;;;5023934;28;20097;-71
2023/03/24 07:18:42;;;;;;;11.70;8.30;;;11.90;99.90;;;;;;5022781;28;20072;-71
2023/03/24 07:21:08;;;;;;;10.30;7.95;;;11.90;99.90;;;;;;5026141;28;20537;-71
2023/03/24 07:23:35;;;;;;;10.10;7.57;;;11.90;99.90;;;;;;5020355;28;20128;-71
2023/03/24 07:26:02;;;;;;;12.30;7.88;;;11.90;99.90;;;;;;5013403;28;20052;-70
2023/03/24 07:28:28;;;;;;;10.00;8.02;;;11.90;99.90;;;;;;5023830;28;20037;-70
2023/03/24 07:31:00;;;;;;;11.02;8.02;;;11.90;99.90;;;;;;5021786;28;20018;-70
2023/03/24 07:33:27;;;;;;;20.33;10.38;;;;;;;;;;5025060;28;20053;-69
2023/03/24 07:36:02;;;;;;;16.58;10.75;;;11.80;99.90;;;;;;5028241;28;20036;-70
2023/03/24 07:38:30;;;;;;;16.00;11.45;;;11.60;99.90;;;;;;5017292;28;20056;-70
2023/03/24 07:41:00;;;;;;;15.60;11.40;;;11.60;99.90;;;;;;5023072;28;20579;-69
2023/03/24 07:43:26;;;;;;;10.70;7.70;;;11.60;99.90;;;;;;5024631;28;20048;-70
2023/03/24 07:45:52;;;;;;;8.60;6.00;;;;;;;;;;5024181;28;20021;-71
2023/03/24 07:48:18;;;;;;;5.53;4.70;;;;;;;;;;5021747;28;20045;-71
2023/03/24 07:50:45;;;;;;;5.35;3.75;;;;;;;;;;5025571;28;20112;-71
2023/03/24 07:53:17;;;;;;;8.60;4.05;;;;;;;;;;5025457;28;20053;-71
2023/03/24 07:55:43;;;;;;;4.70;2.30;;;;;;;;;;5024897;28;20026;-71
2023/03/24 07:58:11;;;;;;;2.33;1.67;;;;;;;;;;5022381;28;20095;-71
2023/03/24 08:00:41;;;;;;;3.28;1.90;;;11.30;99.90;;;;;;5021432;28;20033;-71
2023/03/24 08:03:13;;;;;;;4.57;1.77;;;11.10;99.90;;;;;;5024223;28;20030;-70
2023/03/24 08:05:40;;;;;;;3.72;2.10;;;11.10;99.90;;;;;;5027360;28;20108;-70
2023/03/24 08:08:09;;;;;;;2.88;2.00;;;11.00;99.90;;;;;;5021562;28;20601;-71
2023/03/24 08:10:36;;;;;;;3.10;2.05;;;11.10;99.90;;;;;;5021834;28;20033;-71
2023/03/24 08:13:02;;;;;;;3.72;2.45;;;11.10;99.90;;;;;;5028834;28;20022;-71
2023/03/24 08:15:28;;;;;;;3.67;1.65;;;11.20;99.90;;;;;;5017856;28;20026;-71
2023/03/24 08:17:55;;;;;;;4.32;2.03;;;11.30;99.90;;;;;;5015790;28;20437;-71
2023/03/24 08:20:25;;;;;;;3.03;1.58;;;11.30;99.90;;;;;;5020466;28;20045;-71
2023/03/24 08:22:53;;;;;;;11.25;2.50;;;11.30;99.90;;;;;;5024088;28;20037;-71
2023/03/24 08:25:20;;;;;;;4.72;2.28;;;11.40;99.90;;;;;;5026571;28;20032;-71
2023/03/24 08:27:50;;;;;;;5.65;3.13;;;11.50;99.90;;;;;;5022948;28;20030;-70
2023/03/24 08:30:20;;;;;;;7.72;4.10;;;11.50;99.90;;;;;;5023905;28;20026;-70
2023/03/24 08:32:50;;;;;;;4.15;2.53;;;11.50;99.90;;;;;;5022716;28;20044;-71
2023/03/24 08:35:21;;;;;;;4.93;2.90;;;11.50;99.90;;;;;;5019253;28;20545;-71
2023/03/24 08:37:49;;;;;;;5.93;3.13;;;11.40;99.90;;;;;;5022040;28;20033;-70
2023/03/24 08:40:19;;;;;;;6.47;3.72;;;11.40;99.90;;;;;;5022516;28;20083;-71
2023/03/24 08:42:49;;;;;;;5.00;2.67;;;11.40;99.90;;;;;;5027586;28;20120;-72
2023/03/24 08:45:15;;;;;;;4.82;2.50;;;11.30;99.90;;;;;;5019280;28;20076;-71
2023/03/24 08:47:41;;;;;;;4.85;3.05;;;11.30;99.90;;;;;;5021263;28;20045;-71
2023/03/24 08:50:08;;;;;;;5.07;2.85;;;11.30;99.90;;;;;;5024469;28;20033;-71
2023/03/24 08:52:41;;;;;;;6.53;3.67;;;11.30;99.90;;;;;;5025405;28;20026;-70
2023/03/24 08:55:08;;;;;;;3.42;2.47;;;11.30;99.90;;;;;;5022603;28;20017;-71
2023/03/24 08:57:45;;;;;;;6.10;3.28;;;11.30;99.90;;;;;;5024299;28;20065;-71
2023/03/24 09:00:14;;;;;;;6.63;5.00;;;11.40;99.90;;;;;;5024220;28;20033;-71
2023/03/24 09:02:41;;;;;;;8.18;5.07;;;11.40;99.90;;;;;;5016493;28;20037;-71
2023/03/24 09:05:08;;;;;;;6.40;4.63;;;11.50;99.90;;;;;;5023581;28;20036;-71
2023/03/24 09:07:35;;;;;;;7.75;4.65;;;11.60;99.90;;;;;;5023869;28;20029;-71
2023/03/24 09:10:01;;;;;;;9.85;8.10;;;;;;;;;;5021363;28;20217;-70
2023/03/24 09:12:28;;;;;;;6.13;3.78;;;;;;;;;;5025373;28;20022;-71
2023/03/24 09:14:58;;;;;;;3.47;2.53;;;;;;;;;;5020727;28;20021;-71
2023/03/24 09:17:25;;;;;;;4.95;2.70;;;;;;;;;;5021467;28;20025;-71
2023/03/24 09:19:59;;;;;;;4.63;3.03;;;;;;;;;;5022205;28;20025;-71
2023/03/24 09:22:28;;;;;;;4.55;3.00;;;;;;;;;;5023515;28;20029;-71
2023/03/24 09:24:59;;;;;;;4.85;2.72;;;;;;;;;;5023268;28;20045;-71
2023/03/24 09:27:26;;;;;;;4.18;2.33;;;;;;;;;;5025381;28;20390;-71
2023/03/24 09:29:57;;;;;;;4.65;2.40;;;;;;;;;;5021358;28;20025;-71
2023/03/24 09:32:25;;;;;;;4.78;2.58;;;;;;;;;;5015542;28;20566;-70
2023/03/24 09:34:57;;;;;;;3.72;1.80;;;;;;;;;;5022695;28;20140;-71
2023/03/24 09:37:29;;;;;;;5.60;2.17;;;;;;;;;;5022174;28;20286;-71
2023/03/24 09:39:58;;;;;;;4.03;1.83;;;;;;;;;;5024745;28;20059;-71
2023/03/24 09:42:36;;;;;;;5.55;1.90;;;;;;;;;;5022396;28;20113;-71
2023/03/24 09:45:18;;;;;;;4.35;1.70;;;;;;;;;;5022109;28;20037;-71
2023/03/24 09:47:51;;;;;;;3.58;1.60;;;;;;;;;;5025502;28;20048;-71
2023/03/24 09:50:42;;;;;;;3.37;1.70;;;;;;;;;;5021274;28;20152;-71
2023/03/24 09:53:31;;;;;;;5.05;2.03;;;;;;;;;;5023895;28;20038;-71
2023/03/24 09:55:59;;;;;;;2.85;1.85;;;;;;;;;;5017770;28;20544;-71
2023/03/24 09:58:29;;;;;;;3.75;1.90;;;;;;;;;;5019427;28;20037;-71
2023/03/24 10:01:00;;;;;;;5.60;1.95;;;;;;;;;;5020095;28;20030;-71
2023/03/24 10:03:30;;;;;;;9.45;3.78;;;;;;;;;;5020310;28;20036;-71
2023/03/24 10:06:06;;;;;;;4.95;2.25;;;;;;;;;;5022194;28;21250;-71
2023/03/24 10:08:37;;;;;;;5.93;2.00;;;;;;;;;;5016059;28;20034;-71
2023/03/24 10:11:12;;;;;;;5.93;1.95;;;;;;;;;;5017229;28;20397;-71
2023/03/24 10:13:49;;;;;;;5.97;3.00;;;;;;;;;;5023772;28;20041;-71
2023/03/24 10:16:16;;;;;;;12.95;6.63;;;;;;;;;;5019009;28;20091;-71
2023/03/24 10:18:49;;;;;;;9.18;5.18;;;;;;;;;;5021669;28;20087;-71
2023/03/24 10:21:25;;;;;;;6.55;2.47;;;;;;;;;;5020818;28;20038;-71
2023/03/24 10:23:56;;;;;;;6.72;2.38;;;;;;;;;;5012932;28;20132;-71
2023/03/24 10:26:30;;;;;;;8.48;2.17;;;;;;;;;;5017750;28;20056;-71
2023/03/24 10:29:08;;;;;;;6.45;2.08;;;;;;;;;;5018336;28;20038;-71
2023/03/24 10:31:38;;;;;;;5.20;1.85;;;;;;;;;;5015686;28;20269;-71
2023/03/24 10:34:09;;;;;;;3.22;1.60;;;;;;;;;;5008751;28;20041;-71
2023/03/24 10:36:41;;;;;;;8.70;2.10;;;;;;;;;;5023775;28;20033;-71
2023/03/24 10:39:16;;;;;;;10.98;2.08;;;;;;;;;;5019900;28;20169;-72
2023/03/24 10:41:45;;;;;;;12.05;2.53;;;;;;;;;;5020513;28;20025;-71
2023/03/24 10:44:15;;;;;;;7.43;2.40;;;;;;;;;;5023118;28;20087;-71
2023/03/24 10:46:48;;;;;;;5.25;1.77;;;;;;;;;;5020293;28;20045;-71
2023/03/24 10:49:22;;;;;;;5.57;2.13;;;;;;;;;;5012807;28;20099;-71
2023/03/24 10:51:55;;;;;;;14.13;2.20;;;;;;;;;;5017357;28;20021;-71
2023/03/24 10:54:33;;;;;;;9.48;2.53;;;;;;;;;;5019438;28;20095;-71
2023/03/24 10:57:06;;;;;;;5.15;1.90;;;;;;;;;;5016546;28;20034;-71
2023/03/24 10:59:35;;;;;;;6.28;2.03;;;;;;;;;;5019860;28;20025;-71
2023/03/24 11:02:19;;;;;;;9.95;2.22;;;;;;;;;;5020452;28;20025;-71
2023/03/24 11:04:50;;;;;;;5.07;2.30;;;;;;;;;;5015526;28;20083;-71
2023/03/24 11:07:20;;;;;;;4.97;1.92;;;;;;;;;;5018662;28;20033;-71
2023/03/24 11:10:14;;;;;;;4.32;2.10;;;;;;;;;;5020656;28;20068;-71
2023/03/24 11:12:43;;;;;;;;;;;;;;;;;;5023451;28;20095;-71
2023/03/24 11:15:16;;;;;;;6.68;1.83;;;;;;;;;;5018541;28;19920;-71
2023/03/24 11:17:49;;;;;;;5.97;1.90;;;;;;;;;;5022076;28;20454;-71
2023/03/24 11:20:22;;;;;;;7.72;2.13;;;;;;;;;;5010899;28;20617;-71
2023/03/24 11:22:59;;;;;;;6.45;2.30;;;;;;;;;;5020340;28;20052;-71
2023/03/24 11:25:39;;;;;;;6.93;2.47;;;;;;;;;;5016226;28;20040;-71
2023/03/24 11:28:14;;;;;;;9.70;2.63;;;;;;;;;;5021388;28;20048;-71
2023/03/24 11:30:51;;;;;;;11.02;2.60;;;;;;;;;;5024116;28;20017;-71
2023/03/24 11:33:21;;;;;;;9.55;2.70;;;;;;;;;;5021192;28;20022;-71
2023/03/24 11:35:53;;;;;;;4.80;2.10;;;;;;;;;;5015195;28;20025;-71
2023/03/24 11:38:29;;;;;;;7.65;2.45;;;;;;;;;;5021347;28;20056;-72
2023/03/24 11:41:01;;;;;;;4.70;2.40;;;;;;;;;;5017040;28;20053;-72
2023/03/24 11:43:30;;;;;;;8.55;2.80;;;;;;;;;;5024101;28;20506;-72
2023/03/24 11:46:12;;;;;;;7.13;2.38;;;;;;;;;;5016641;28;20029;-72
2023/03/24 11:48:44;;;;;;;9.60;2.90;;;;;;;;;;5020263;28;20042;-72
2023/03/24 11:51:25;;;;;;;5.60;2.23;;;;;;;;;;5019090;28;20119;-72
2023/03/24 11:53:54;;;;;;;6.78;2.58;;;;;;;;;;5020317;28;20025;-72
2023/03/24 11:56:23;;;;;;;9.27;3.10;;;;;;;;;;5022126;28;20034;-72
2023/03/24 11:58:57;;;;;;;7.40;2.60;;;;;;;;;;5015700;28;20509;-72
2023/03/24 12:01:29;;;;;;;7.53;2.50;;;;;;;;;;5019404;28;20490;-72
2023/03/24 12:04:14;;;;;;;5.28;2.47;;;;;;;;;;5023817;28;20034;-72
2023/03/24 12:06:46;;;;;;;6.88;2.80;;;;;;;;;;5029026;28;20029;-72
2023/03/24 12:09:39;;;;;;;6.22;2.67;;;;;;;;;;5019476;28;20245;-72
2023/03/24 12:12:11;;;;;;;9.27;3.22;;;;;;;;;;5016908;28;20041;-72
2023/03/24 12:14:40;;;;;;;6.60;2.45;;;;;;;;;;5014455;28;20052;-71
2023/03/24 12:17:42;;;;;;;4.72;2.53;;;;;;;;;;5015082;28;20131;-72
2023/03/24 12:20:08;;;;;;;7.47;2.97;;;;;;;;;;4945622;28;20593;-72
2023/03/24 12:22:43;;;;;;;8.32;2.83;;;;;;;;;;5001736;28;20044;-72
2023/03/24 12:25:21;;;;;;;5.95;2.50;;;;;;;;;;5009977;28;20189;-72
2023/03/24 12:27:51;;;;;;;7.03;2.80;;;;;;;;;;5013948;28;20382;-72
2023/03/24 12:30:17;;;;;;;5.68;2.80;;;;;;;;;;5016455;28;20026;-72
2023/03/24 12:32:51;;;;;;;6.57;2.63;;;;;;;;;;5007275;28;20027;-72
2023/03/24 12:35:22;;;;;;;7.88;2.90;;;;;;;;;;5014393;28;20041;-72
2023/03/24 12:37:56;;;;;;;7.13;2.40;;;;;;;;;;5012805;28;20345;-73
2023/03/24 12:40:32;;;;;;;5.63;2.70;;;;;;;;;;5015311;28;20029;-72
2023/03/24 12:43:04;;;;;;;9.60;2.67;;;;;;;;;;5018094;28;20037;-72
2023/03/24 12:45:35;;;;;;;6.68;3.15;;;;;;;;;;5015875;28;20126;-73
2023/03/24 12:48:07;;;;;;;9.48;2.80;;;;;;;;;;5018237;28;20042;-72
2023/03/24 12:50:47;;;;;;;8.18;2.80;;;13.70;99.90;;;;;;5017405;28;20029;-73
2023/03/24 12:53:21;;;;;;;8.20;2.53;;;;;;;;;;5017612;28;20044;-72
2023/03/24 12:56:08;;;;;;;6.97;2.75;;;13.60;99.90;;;;;;5019993;28;20025;-72
2023/03/24 12:58:47;;;;;;;7.15;2.70;;;13.50;99.90;;;;;;5019584;28;20040;-72
2023/03/24 13:01:40;;;;;;;7.95;2.75;;;13.60;99.90;;;;;;5020737;28;20029;-72
2023/03/24 13:04:28;;;;;;;7.87;2.70;;;13.80;99.90;;;;;;5018292;28;20060;-72
2023/03/24 13:07:10;;;;;;;9.95;3.20;;;14.00;99.90;;;;;;5024136;28;20061;-72
2023/03/24 13:10:00;;;;;;;10.00;2.95;;;14.20;99.90;;;;;;5026779;28;20030;-72
2023/03/24 13:12:57;;;;;;;6.32;2.42;;;14.40;99.90;;;;;;5023972;28;20111;-72
2023/03/24 13:15:35;;;;;;;9.18;2.70;;;14.80;99.90;;;;;;5017083;28;20105;-72
2023/03/24 13:18:10;;;;;;;6.25;2.63;;;14.80;99.90;;;;;;5026568;28;20108;-72
2023/03/24 13:21:01;;;;;;;7.57;1.55;;;14.70;99.90;;;;;;5013344;28;20021;-72
2023/03/24 13:23:43;;;;;;;6.15;1.75;;;14.90;99.90;;;;;;5024510;28;20094;-72
2023/03/24 13:26:28;;;;;;;7.68;2.30;;;15.20;99.90;;;;;;5011853;28;20038;-72
2023/03/24 13:29:27;;;;;;;6.22;2.35;;;15.50;99.90;;;;;;5009987;28;20034;-72
2023/03/24 13:32:07;;;;;;;7.72;2.13;;;15.70;99.90;;;;;;5025523;28;20684;-71
2023/03/24 13:34:56;;;;;;;7.47;2.10;;;15.60;99.90;;;;;;5023073;28;20092;-72
2023/03/24 13:37:38;;;;;;;6.15;2.10;;;15.70;99.90;;;;;;5014997;28;20037;-72
2023/03/24 13:40:22;;;;;;;10.20;2.15;;;15.90;99.90;;;;;;5017198;28;20037;-72
2023/03/24 13:42:58;;;;;;;7.85;1.90;;;16.00;99.90;;;;;;5023461;28;20105;-72
2023/03/24 13:45:33;;;;;;;6.22;2.30;;;16.10;99.90;;;;;;5020335;28;20030;-72
2023/03/24 13:48:22;;;;;;;7.82;2.20;;;16.20;99.90;;;;;;5019093;28;20253;-71
2023/03/24 13:51:07;;;;;;;5.22;2.17;;;16.20;99.90;;;;;;5018984;28;20033;-71
2023/03/24 13:53:51;;;;;;;4.43;1.75;;;16.20;99.90;;;;;;5010977;28;20053;-71
2023/03/24 13:56:25;;;;;;;;;;;16.00;99.90;;;;;;5018624;28;20026;-71
2023/03/24 13:59:00;;;;;;;;;;;15.70;99.90;;;;;;5025301;28;19909;-71
2023/03/24 14:01:41;;;;;;;9.30;2.03;;;15.40;99.90;;;;;;5016027;28;19920;-71
2023/03/24 14:04:25;;;;;;;8.13;2.20;;;15.20;99.90;;;;;;5012155;28;20136;-72
2023/03/24 14:07:01;;;;;;;7.47;1.90;;;15.00;99.90;;;;;;5015416;28;20076;-71
2023/03/24 14:09:29;;;;;;;6.32;2.08;;;15.00;99.90;;;;;;5020175;28;20065;-72
2023/03/24 14:12:02;;;;;;;6.75;1.90;;;14.90;99.90;;;;;;5024375;28;20029;-71
2023/03/24 14:14:57;;;;;;;7.47;1.95;;;14.80;99.90;;;;;;5020194;28;20116;-71
2023/03/24 14:17:26;;;;;;;7.30;1.60;;;;;;;;;;5018526;28;20034;-71
2023/03/24 14:20:01;;;;;;;6.30;1.95;;;;;;;;;;5024631;28;20044;-71
2023/03/24 14:22:47;;;;;;;7.35;1.70;;;15.00;99.90;;;;;;5019762;28;20061;-71
2023/03/24 14:25:25;;;;;;;8.23;2.00;;;14.90;99.90;;;;;;5026253;28;20465;-71
2023/03/24 14:28:15;;;;;;;5.03;1.35;;;14.70;99.90;;;;;;5025523;28;20040;-71
2023/03/24 14:31:11;;;;;;;8.00;1.83;;;14.60;99.90;;;;;;5026819;28;20045;-71
2023/03/24 14:34:01;;;;;;;5.78;1.50;;;14.40;99.90;;;;;;5021343;28;20022;-71
2023/03/24 14:36:39;;;;;;;8.63;1.80;;;14.30;99.90;;;;;;5026935;28;20032;-71